Time;durP1;ratioP1;P1;durP2;ratioP2;P2;SDS_P1;SDS_P2;PMS_P1;PMS_P2;Temp;Humidity;BMP_temperature;BMP_pressure;BME280_temperature;BME280_humidity;BME280_pressure;Samples;Min_cycle;Max_cycle;Signal;HPM_P1;HPM_P2
2021/08/19 00:00:00;;;;;;;2.70;2.27;;;18.50;1.00;19.30;100467.00;;;;4970077;28;20470;-85
2021/08/19 00:02:32;;;;;;;3.23;2.40;;;18.50;1.00;19.20;100469.00;;;;4970220;28;20983;-85
2021/08/19 00:05:00;;;;;;;2.97;1.87;;;18.40;1.00;19.10;100459.00;;;;4959291;28;20566;-85
2021/08/19 00:07:29;;;;;;;2.20;1.90;;;18.40;1.00;19.10;100457.00;;;;4984725;28;20554;-85
2021/08/19 00:09:57;;;;;;;2.23;1.87;;;18.40;1.00;19.10;100469.00;;;;4968819;28;20470;-84
2021/08/19 00:12:26;;;;;;;3.20;2.20;;;18.40;1.00;19.10;100455.00;;;;4970711;28;20483;-85
2021/08/19 00:14:56;;;;;;;3.07;2.20;;;18.30;1.00;19.10;100482.00;;;;4980763;28;20530;-83
2021/08/19 00:17:24;;;;;;;3.20;2.20;;;18.30;1.00;19.20;100452.00;;;;4987638;28;20455;-83
2021/08/19 00:19:52;;;;;;;3.67;2.33;;;18.30;1.00;19.20;100450.00;;;;4985848;28;20475;-83
2021/08/19 00:22:21;;;;;;;2.93;2.30;;;18.40;1.00;19.20;100465.00;;;;4973937;28;20511;-84
2021/08/19 00:24:49;;;;;;;2.97;2.10;;;18.40;1.00;19.20;100466.00;;;;4973886;28;20475;-84
2021/08/19 00:27:18;;;;;;;3.90;2.30;;;18.40;1.00;19.20;100463.00;;;;4971703;28;20452;-84
2021/08/19 00:29:46;;;;;;;2.67;2.30;;;18.40;1.00;19.20;100374.00;;;;4968536;28;20459;-82
2021/08/19 00:32:15;;;;;;;3.50;2.47;;;18.40;1.00;19.10;100467.00;;;;4969197;28;20487;-81
2021/08/19 00:34:44;;;;;;;3.57;2.33;;;18.40;1.00;19.20;100451.00;;;;4968926;28;20464;-82
2021/08/19 00:37:12;;;;;;;3.00;2.07;;;18.40;1.00;19.10;100461.00;;;;4968732;28;21014;-82
2021/08/19 00:39:41;;;;;;;4.50;2.00;;;18.40;1.00;19.20;100444.00;;;;4974382;28;20508;-82
2021/08/19 00:42:09;;;;;;;2.20;1.90;;;18.40;1.00;19.20;100459.00;;;;4985595;28;20542;-82
2021/08/19 00:44:40;;;;;;;2.57;1.90;;;18.40;1.00;19.20;100461.00;;;;4978296;28;20458;-82
2021/08/19 00:47:09;;;;;;;2.70;2.10;;;18.40;1.00;19.20;100393.00;;;;4971889;28;20487;-83
2021/08/19 00:49:40;;;;;;;3.10;2.47;;;18.50;1.00;19.20;100445.00;;;;4975074;28;20455;-83
2021/08/19 00:52:09;;;;;;;3.43;2.33;;;18.50;1.00;19.20;100442.00;;;;4962891;28;20490;-82
2021/08/19 00:54:39;;;;;;;2.63;2.30;;;18.40;1.00;19.20;100434.00;;;;4978430;28;20459;-83
2021/08/19 00:57:08;;;;;;;7.33;2.40;;;18.50;1.00;19.20;100431.00;;;;4987041;28;20539;-83
2021/08/19 00:59:40;;;;;;;3.47;2.27;;;18.40;1.00;19.10;100404.00;;;;4987591;28;20462;-82
2021/08/19 01:02:09;;;;;;;2.00;1.80;;;18.40;1.00;19.10;100420.00;;;;4983070;28;20466;-84
2021/08/19 01:04:41;;;;;;;2.73;2.50;;;18.40;1.00;19.00;100432.00;;;;4974396;28;20479;-84
2021/08/19 01:07:10;;;;;;;3.90;2.53;;;18.40;1.00;19.10;100427.00;;;;4975562;28;20459;-83
2021/08/19 01:09:39;;;;;;;3.83;2.07;;;18.40;1.00;19.10;100424.00;;;;4974427;28;20466;-85
2021/08/19 01:12:11;;;;;;;2.33;1.90;;;18.40;1.00;19.10;100324.00;;;;4966589;28;20562;-84
2021/08/19 01:14:40;;;;;;;3.70;2.00;;;18.40;1.00;19.00;100418.00;;;;4964485;28;20455;-83
2021/08/19 01:17:10;;;;;;;2.60;2.00;;;18.30;1.00;19.00;100322.00;;;;4972613;28;20570;-82
2021/08/19 01:19:42;;;;;;;4.07;2.20;;;18.30;1.00;18.90;100424.00;;;;4972718;28;20819;-84
2021/08/19 01:22:11;;;;;;;2.50;2.30;;;18.40;1.00;19.00;100405.00;;;;4972838;28;20451;-83
2021/08/19 01:24:39;;;;;;;3.37;2.37;;;18.30;1.00;19.00;100399.00;;;;4967368;28;20544;-83
2021/08/19 01:27:14;;;;;;;3.57;2.33;;;18.20;1.00;19.00;100366.00;;;;4974418;28;20459;-84
2021/08/19 01:29:44;;;;;;;3.10;2.00;;;18.30;1.00;19.00;100436.00;;;;4975400;28;20471;-83
2021/08/19 01:32:13;;;;;;;2.93;2.63;;;18.30;1.00;18.80;100438.00;;;;4975238;28;20577;-82
2021/08/19 01:34:42;;;;;;;3.00;2.33;;;18.20;1.00;19.00;100442.00;;;;4972977;28;20444;-84
2021/08/19 01:37:12;;;;;;;4.33;2.40;;;18.20;1.00;19.00;100432.00;;;;4971944;28;20491;-83
2021/08/19 01:39:41;;;;;;;2.33;1.93;;;18.20;1.00;19.00;100420.00;;;;4973643;28;20525;-83
2021/08/19 01:42:11;;;;;;;2.13;1.93;;;18.30;1.00;19.00;100430.00;;;;4974996;28;20459;-82
2021/08/19 01:44:40;;;;;;;2.10;1.90;;;18.30;1.00;19.00;100424.00;;;;5006286;28;20464;-81
2021/08/19 01:47:11;;;;;;;2.80;2.43;;;18.30;1.00;19.00;100439.00;;;;4983255;28;20525;-82
2021/08/19 01:49:41;;;;;;;2.30;2.10;;;18.30;1.00;18.90;100395.00;;;;4990698;28;20939;-84
2021/08/19 01:52:12;;;;;;;3.03;1.73;;;18.20;1.00;19.00;100392.00;;;;4972991;28;20483;-83
2021/08/19 01:54:40;;;;;;;5.37;2.50;;;18.20;1.00;19.00;100418.00;;;;4974266;28;20463;-84
2021/08/19 01:57:09;;;;;;;4.83;2.43;;;18.20;1.00;19.00;100409.00;;;;4975189;28;20459;-84
2021/08/19 01:59:38;;;;;;;2.47;1.87;;;18.30;1.00;19.00;100413.00;;;;4971003;28;20464;-83
2021/08/19 02:02:07;;;;;;;3.30;2.10;;;18.30;1.00;19.00;100399.00;;;;4970566;28;20463;-83
2021/08/19 02:04:36;;;;;;;2.47;1.93;;;18.30;1.00;19.00;100405.00;;;;4972640;28;20470;-82
2021/08/19 02:07:05;;;;;;;4.57;2.30;;;18.30;1.00;19.00;100416.00;;;;4970294;28;20479;-83
2021/08/19 02:09:33;;;;;;;2.63;2.27;;;18.30;1.00;19.00;100411.00;;;;4971981;28;20459;-83
2021/08/19 02:12:02;;;;;;;3.10;2.80;;;18.30;1.00;19.00;100386.00;;;;4971648;28;20514;-84
2021/08/19 02:14:30;;;;;;;3.03;2.20;;;18.30;1.00;19.00;100351.00;;;;4971147;28;20545;-83
2021/08/19 02:17:00;;;;;;;2.67;2.43;;;18.30;1.00;19.00;100402.00;;;;4987207;28;20467;-84
2021/08/19 02:19:28;;;;;;;2.50;2.30;;;18.20;1.00;19.00;100400.00;;;;4975661;28;20451;-82
2021/08/19 02:21:56;;;;;;;2.93;2.23;;;18.20;1.00;18.90;100405.00;;;;4979661;28;20527;-82
2021/08/19 02:24:25;;;;;;;4.03;2.47;;;18.20;1.00;18.90;100386.00;;;;4989917;28;20491;-83
2021/08/19 02:26:53;;;;;;;3.77;2.50;;;18.30;1.00;18.90;100407.00;;;;4973449;28;20547;-84
2021/08/19 02:29:21;;;;;;;3.60;2.67;;;18.20;1.00;18.90;100417.00;;;;4974092;28;20463;-84
2021/08/19 02:31:50;;;;;;;2.87;2.40;;;18.10;1.00;18.90;100412.00;;;;4973465;28;20474;-83
2021/08/19 02:34:20;;;;;;;2.63;2.40;;;18.10;1.00;18.80;100412.00;;;;4970845;28;20467;-81
2021/08/19 02:36:48;;;;;;;3.00;2.60;;;18.10;1.00;18.90;100400.00;;;;5000298;28;20468;-81
2021/08/19 02:39:16;;;;;;;4.30;2.60;;;18.10;1.00;18.80;100398.00;;;;4999379;28;20470;-82
2021/08/19 02:41:45;;;;;;;5.97;2.93;;;18.10;1.00;18.80;100316.00;;;;4973517;28;20455;-84
2021/08/19 02:44:13;;;;;;;2.77;2.57;;;18.10;1.00;18.80;100364.00;;;;4984395;28;20510;-84
2021/08/19 02:46:41;;;;;;;3.57;2.60;;;18.10;1.00;18.80;100409.00;;;;4989983;28;20519;-84
2021/08/19 02:49:10;;;;;;;2.80;2.50;;;18.10;1.00;18.80;100373.00;;;;4973714;28;20522;-85
2021/08/19 02:51:40;;;;;;;4.23;2.37;;;18.10;1.00;18.80;100404.00;;;;4987050;28;20475;-84
2021/08/19 02:54:08;;;;;;;3.80;2.83;;;18.10;1.00;18.80;100406.00;;;;4971582;28;20495;-84
2021/08/19 02:56:38;;;;;;;3.07;2.70;;;18.00;1.00;18.80;100411.00;;;;4978945;28;20551;-84
2021/08/19 02:59:07;;;;;;;4.33;2.87;;;18.10;1.00;18.80;100401.00;;;;4974999;28;20475;-84
2021/08/19 03:01:35;;;;;;;2.60;2.40;;;18.00;1.00;18.80;100373.00;;;;4975334;28;20486;-84
2021/08/19 03:04:04;;;;;;;4.47;3.23;;;18.00;1.00;18.80;100403.00;;;;4993199;28;20516;-83
2021/08/19 03:06:32;;;;;;;3.33;3.03;;;18.00;1.00;18.70;100404.00;;;;4988826;28;20455;-82
2021/08/19 03:09:02;;;;;;;3.43;3.13;;;18.00;1.00;18.80;100401.00;;;;4987792;28;20456;-82
2021/08/19 03:11:30;;;;;;;2.40;2.20;;;18.00;1.00;18.70;100386.00;;;;4991286;28;20530;-82
2021/08/19 03:13:59;;;;;;;4.40;3.10;;;17.90;1.00;18.70;100416.00;;;;4992066;28;20501;-82
2021/08/19 03:16:27;;;;;;;3.50;3.20;;;18.00;1.00;18.70;100377.00;;;;4990298;28;20462;-83
2021/08/19 03:18:56;;;;;;;6.63;3.57;;;18.00;1.00;18.70;100406.00;;;;4972578;28;20938;-83
2021/08/19 03:21:24;;;;;;;3.90;3.30;;;18.00;1.00;18.70;100366.00;;;;4970356;28;20546;-83
2021/08/19 03:23:53;;;;;;;3.17;2.70;;;18.00;1.00;18.70;100419.00;;;;4968974;28;20491;-83
2021/08/19 03:26:23;;;;;;;3.23;2.93;;;17.90;1.00;18.60;100405.00;;;;4959899;28;20840;-82
2021/08/19 03:28:51;;;;;;;3.40;3.07;;;17.90;1.00;18.60;100385.00;;;;4968080;28;20456;-83
2021/08/19 03:31:19;;;;;;;3.53;3.20;;;17.80;1.00;18.50;100382.00;;;;4968536;28;20463;-83
2021/08/19 03:33:48;;;;;;;3.10;2.80;;;17.70;1.00;18.50;100415.00;;;;4971642;28;20480;-84
2021/08/19 03:36:16;;;;;;;3.10;2.80;;;17.70;1.00;18.50;100418.00;;;;4969581;28;20464;-83
2021/08/19 03:38:45;;;;;;;5.33;3.07;;;17.70;1.00;18.50;100414.00;;;;4969584;28;20530;-84
2021/08/19 03:41:13;;;;;;;3.77;3.07;;;17.70;1.00;18.50;100413.00;;;;4968911;28;20495;-84
2021/08/19 03:43:44;;;;;;;3.93;3.03;;;17.70;1.00;18.50;100418.00;;;;4985333;28;20497;-82
2021/08/19 03:46:13;;;;;;;3.80;2.63;;;17.70;1.00;18.50;100406.00;;;;4963190;28;20514;-83
2021/08/19 03:48:43;;;;;;;3.00;2.70;;;17.60;1.00;18.50;100341.00;;;;4970439;28;20726;-83
2021/08/19 03:51:11;;;;;;;4.20;3.03;;;17.60;1.00;18.50;100392.00;;;;4972584;28;20452;-84
2021/08/19 03:53:39;;;;;;;3.80;3.10;;;17.60;1.00;18.50;100418.00;;;;4981378;28;20502;-82
2021/08/19 03:56:08;;;;;;;3.57;3.13;;;17.70;1.00;18.40;100430.00;;;;4982569;28;21241;-85
2021/08/19 03:58:37;;;;;;;3.50;2.70;;;17.60;1.00;18.50;100416.00;;;;4991378;28;20463;-84
2021/08/19 04:01:07;;;;;;;4.20;3.10;;;17.60;1.00;18.50;100403.00;;;;4973712;28;20458;-84
2021/08/19 04:03:37;;;;;;;6.73;3.47;;;17.60;1.00;18.50;100430.00;;;;4962061;28;20486;-85
2021/08/19 04:06:05;;;;;;;3.97;3.13;;;17.60;1.00;18.50;100426.00;;;;4973570;28;20459;-82
2021/08/19 04:08:34;;;;;;;5.00;3.17;;;17.60;1.00;18.50;100422.00;;;;4970950;28;21283;-84
2021/08/19 04:11:02;;;;;;;4.73;3.60;;;17.60;1.00;18.50;100427.00;;;;4971195;28;20975;-83
2021/08/19 04:13:30;;;;;;;4.30;3.33;;;17.60;1.00;18.40;100405.00;;;;4968704;28;20965;-84
2021/08/19 04:15:59;;;;;;;3.70;3.40;;;17.50;1.00;18.40;100370.00;;;;4968579;28;20532;-85
2021/08/19 04:18:29;;;;;;;3.83;3.43;;;17.50;1.00;18.40;100424.00;;;;4979092;28;20455;-83
2021/08/19 04:20:57;;;;;;;3.87;3.40;;;17.50;1.00;18.40;100417.00;;;;4970816;28;21015;-84
2021/08/19 04:23:25;;;;;;;4.00;3.60;;;17.50;1.00;18.40;100411.00;;;;4976969;28;20551;-84
2021/08/19 04:25:54;;;;;;;4.47;3.73;;;17.50;1.00;18.40;100417.00;;;;4976067;28;20459;-83
2021/08/19 04:28:23;;;;;;;4.23;3.67;;;17.50;1.00;18.40;100414.00;;;;4991634;28;20463;-83
2021/08/19 04:30:51;;;;;;;4.80;3.97;;;17.60;1.00;18.40;100405.00;;;;4979556;28;20456;-84
2021/08/19 04:33:23;;;;;;;5.70;4.33;;;17.50;1.00;18.40;100420.00;;;;4980937;28;20475;-82
2021/08/19 04:35:52;;;;;;;5.53;4.20;;;17.60;1.00;18.40;100411.00;;;;4985336;28;20514;-82
2021/08/19 04:38:21;;;;;;;4.20;3.80;;;17.50;1.00;18.40;100416.00;;;;4977337;28;20560;-85
2021/08/19 04:40:49;;;;;;;5.07;3.97;;;17.50;1.00;18.30;100422.00;;;;4971959;28;20490;-84
2021/08/19 04:43:18;;;;;;;4.73;4.13;;;17.50;1.00;18.30;100374.00;;;;4973594;28;20487;-84
2021/08/19 04:45:46;;;;;;;5.10;4.10;;;17.50;1.00;18.40;100414.00;;;;4974075;28;20534;-84
2021/08/19 04:48:15;;;;;;;4.03;3.73;;;17.50;1.00;18.40;100418.00;;;;4999038;28;20467;-84
2021/08/19 04:50:43;;;;;;;5.57;4.77;;;17.50;1.00;18.40;100418.00;;;;4984425;28;20459;-83
2021/08/19 04:53:13;;;;;;;5.60;4.20;;;17.60;1.00;18.40;100423.00;;;;4998122;28;20488;-84
2021/08/19 04:55:41;;;;;;;5.37;4.70;;;17.50;1.00;18.40;100397.00;;;;4975913;28;20464;-84
2021/08/19 04:58:10;;;;;;;4.67;4.27;;;17.50;1.00;18.40;100410.00;;;;4977639;28;20483;-85
2021/08/19 05:00:38;;;;;;;5.27;4.43;;;17.50;1.00;18.40;100419.00;;;;4990731;28;20455;-85
2021/08/19 05:03:07;;;;;;;4.77;3.90;;;17.60;1.00;18.40;100426.00;;;;4999380;28;20467;-82
2021/08/19 05:05:35;;;;;;;4.13;3.83;;;17.50;1.00;18.40;100411.00;;;;4995510;28;20870;-83
2021/08/19 05:08:04;;;;;;;5.90;5.30;;;17.60;1.00;18.40;100326.00;;;;4983461;28;20465;-84
2021/08/19 05:10:34;;;;;;;5.77;4.93;;;17.50;1.00;18.40;100424.00;;;;4992565;28;20464;-84
2021/08/19 05:13:02;;;;;;;5.13;4.40;;;17.60;1.00;18.50;100433.00;;;;4975722;28;20594;-83
2021/08/19 05:15:31;;;;;;;6.33;4.50;;;17.60;1.00;18.50;100434.00;;;;4974329;28;20522;-84
2021/08/19 05:17:59;;;;;;;6.13;5.10;;;17.60;1.00;18.50;100425.00;;;;4969243;28;20456;-82
2021/08/19 05:20:28;;;;;;;4.83;4.43;;;17.60;1.00;18.50;100424.00;;;;4983061;28;20487;-82
2021/08/19 05:22:56;;;;;;;5.00;4.50;;;17.60;1.00;18.50;100425.00;;;;4984573;28;20767;-83
2021/08/19 05:25:25;;;;;;;5.33;4.60;;;17.60;1.00;18.50;100396.00;;;;4978337;28;20475;-83
2021/08/19 05:27:54;;;;;;;5.80;4.80;;;17.60;1.00;18.50;100435.00;;;;4973019;28;20455;-84
2021/08/19 05:30:23;;;;;;;5.20;4.50;;;17.80;1.00;18.40;100427.00;;;;4970676;28;20452;-83
2021/08/19 05:32:51;;;;;;;6.80;4.67;;;17.70;1.00;18.60;100415.00;;;;4971770;28;20483;-82
2021/08/19 05:35:20;;;;;;;6.40;5.80;;;17.80;1.00;18.70;100438.00;;;;4983575;28;20498;-82
2021/08/19 05:37:49;;;;;;;6.83;5.10;;;17.80;1.00;18.70;100340.00;;;;4981129;28;20462;-83
2021/08/19 05:40:17;;;;;;;4.77;4.30;;;17.80;1.00;18.70;100405.00;;;;4986449;28;20912;-83
2021/08/19 05:42:46;;;;;;;5.10;4.60;;;17.80;1.00;18.70;100422.00;;;;4987393;28;20514;-82
2021/08/19 05:45:16;;;;;;;5.57;4.87;;;17.80;1.00;18.70;100432.00;;;;4986885;28;20479;-82
2021/08/19 05:47:45;;;;;;;5.37;4.40;;;17.80;1.00;18.70;100415.00;;;;4972971;28;20551;-82
2021/08/19 05:50:13;;;;;;;5.97;4.80;;;17.80;1.00;18.70;100430.00;;;;4972283;28;20952;-83
2021/08/19 05:52:43;;;;;;;7.13;4.77;;;17.80;1.00;18.70;100434.00;;;;4974301;28;20479;-83
2021/08/19 05:55:12;;;;;;;5.40;4.90;;;17.80;1.00;18.70;100414.00;;;;4970662;28;20550;-84
2021/08/19 05:57:40;;;;;;;5.10;4.60;;;17.80;1.00;18.70;100432.00;;;;4970490;28;20459;-84
2021/08/19 06:00:10;;;;;;;6.20;5.13;;;17.80;1.00;18.70;100433.00;;;;4971904;28;20524;-83
2021/08/19 06:02:40;;;;;;;5.10;4.57;;;17.80;1.00;18.70;100406.00;;;;4968256;28;21043;-84
2021/08/19 06:05:10;;;;;;;7.23;5.00;;;17.80;1.00;18.80;100413.00;;;;4969153;28;20487;-83
2021/08/19 06:07:39;;;;;;;5.57;5.07;;;17.90;1.00;18.80;100440.00;;;;4969635;28;20526;-83
2021/08/19 06:10:08;;;;;;;6.20;5.50;;;17.90;1.00;18.80;100415.00;;;;4970003;28;20448;-83
2021/08/19 06:12:37;;;;;;;5.67;5.10;;;17.90;1.00;18.80;100433.00;;;;4969209;28;21013;-83
2021/08/19 06:15:08;;;;;;;6.27;4.73;;;17.90;1.00;18.80;100439.00;;;;4970887;28;20471;-84
2021/08/19 06:17:36;;;;;;;6.00;4.87;;;17.90;1.00;18.90;100450.00;;;;4975358;28;20466;-82
2021/08/19 06:20:14;;;;;;;6.40;4.73;;;17.90;1.00;18.90;100452.00;;;;4983761;28;21185;-84
2021/08/19 06:22:42;;;;;;;6.33;5.40;;;18.00;1.00;19.00;100455.00;;;;4967838;28;20567;-84
2021/08/19 06:25:12;;;;;;;5.33;4.80;;;18.00;1.00;18.90;100458.00;;;;4978485;28;20470;-83
2021/08/19 06:27:40;;;;;;;7.37;5.13;;;18.00;1.00;18.90;100460.00;;;;4989961;28;20463;-84
2021/08/19 06:30:11;;;;;;;6.30;5.33;;;18.00;1.00;19.00;100463.00;;;;4989653;28;20471;-83
2021/08/19 06:32:39;;;;;;;6.10;5.60;;;18.10;1.00;19.00;100445.00;;;;4987234;28;20774;-83
2021/08/19 06:35:11;;;;;;;5.20;4.70;;;18.10;1.00;19.00;100443.00;;;;4982282;28;20486;-84
2021/08/19 06:37:40;;;;;;;5.57;4.93;;;18.10;1.00;19.10;100459.00;;;;4977022;28;20546;-83
2021/08/19 06:40:10;;;;;;;5.30;4.80;;;18.20;1.00;19.10;100437.00;;;;4963705;28;20578;-82
2021/08/19 06:42:38;;;;;;;6.03;5.47;;;18.30;1.00;19.20;100443.00;;;;4969151;28;20480;-82
2021/08/19 06:45:08;;;;;;;5.80;4.80;;;18.40;1.00;19.40;100450.00;;;;4968476;28;20465;-83
2021/08/19 06:47:37;;;;;;;5.87;4.83;;;18.50;1.00;19.60;100446.00;;;;4969071;28;20459;-83
2021/08/19 06:50:07;;;;;;;7.03;4.70;;;18.70;1.00;19.80;100417.00;;;;4983508;28;20463;-82
2021/08/19 06:52:41;;;;;;;5.20;4.70;;;18.90;1.00;19.90;100415.00;;;;4978392;28;20565;-82
2021/08/19 06:55:11;;;;;;;5.23;4.20;;;19.10;1.00;20.10;100434.00;;;;4988274;28;20482;-83
2021/08/19 06:57:39;;;;;;;4.40;4.00;;;19.20;1.00;20.30;100439.00;;;;4975430;28;20451;-83
2021/08/19 07:00:10;;;;;;;5.30;4.20;;;19.40;1.00;20.40;100419.00;;;;4971305;28;20456;-82
2021/08/19 07:02:39;;;;;;;5.17;4.40;;;19.50;1.00;20.50;100428.00;;;;4970410;28;20471;-83
2021/08/19 07:05:09;;;;;;;5.50;4.80;;;19.60;1.00;20.60;100444.00;;;;4971758;28;21014;-82
2021/08/19 07:07:39;;;;;;;4.77;3.67;;;19.70;1.00;20.70;100440.00;;;;4959159;28;20459;-84
2021/08/19 07:10:09;;;;;;;6.40;3.93;;;19.80;1.00;20.80;100442.00;;;;4970209;28;20983;-84
2021/08/19 07:12:39;;;;;;;4.60;4.20;;;19.80;1.00;20.70;100409.00;;;;4958463;28;20557;-84
2021/08/19 07:15:09;;;;;;;4.40;4.00;;;19.90;1.00;21.10;100425.00;;;;4968173;28;20475;-84
2021/08/19 07:17:38;;;;;;;4.30;3.90;;;20.10;1.00;21.10;100395.00;;;;4970277;28;20459;-82
2021/08/19 07:20:08;;;;;;;4.50;3.50;;;20.30;1.00;21.20;100435.00;;;;4968354;28;20454;-83
2021/08/19 07:22:36;;;;;;;4.20;3.50;;;20.20;1.00;21.20;100431.00;;;;4967851;28;20479;-84
2021/08/19 07:25:07;;;;;;;3.80;3.40;;;20.20;1.00;21.20;100423.00;;;;4969242;28;20851;-83
2021/08/19 07:27:35;;;;;;;6.27;3.30;;;20.30;1.00;21.30;100424.00;;;;4972184;28;20465;-83
2021/08/19 07:30:05;;;;;;;4.00;3.50;;;20.40;1.00;21.40;100432.00;;;;4975337;28;20468;-83
2021/08/19 07:32:34;;;;;;;4.50;3.50;;;20.40;1.00;21.50;100447.00;;;;4978158;28;20543;-84
2021/08/19 07:35:03;;;;;;;3.40;2.83;;;20.50;1.00;21.50;100432.00;;;;4969858;28;20473;-85
2021/08/19 07:37:32;;;;;;;3.87;2.93;;;20.60;1.00;21.60;100442.00;;;;4971655;28;21488;-84
2021/08/19 07:40:00;;;;;;;3.93;3.23;;;20.70;1.00;21.60;100413.00;;;;4967743;28;20459;-82
2021/08/19 07:42:30;;;;;;;2.80;2.50;;;20.80;1.00;21.50;100441.00;;;;4969921;28;20483;-84
2021/08/19 07:44:58;;;;;;;3.13;2.77;;;20.80;1.00;21.70;100432.00;;;;4975501;28;20514;-83
2021/08/19 07:47:27;;;;;;;5.00;2.53;;;20.80;1.00;21.90;100437.00;;;;4983142;28;20460;-82
2021/08/19 07:49:55;;;;;;;3.07;2.60;;;21.10;1.00;22.00;100411.00;;;;4994867;28;21032;-83
2021/08/19 07:52:24;;;;;;;4.13;2.53;;;21.20;1.00;22.10;100410.00;;;;4970096;28;20486;-83
2021/08/19 07:54:52;;;;;;;4.17;2.60;;;21.30;1.00;22.40;100439.00;;;;4967641;28;20509;-84
2021/08/19 07:57:21;;;;;;;2.50;2.20;;;21.50;1.00;22.60;100428.00;;;;4986536;28;20463;-84
2021/08/19 07:59:50;;;;;;;2.60;2.40;;;21.60;1.00;22.50;100355.00;;;;4973606;28;20467;-83
2021/08/19 08:02:21;;;;;;;3.47;2.50;;;21.70;1.00;22.50;100418.00;;;;4970448;28;20558;-84
2021/08/19 08:04:50;;;;;;;3.40;2.53;;;21.60;1.00;22.60;100426.00;;;;4979759;28;20467;-82
2021/08/19 08:07:21;;;;;;;3.37;2.07;;;21.60;1.00;22.50;100441.00;;;;4997097;28;20463;-83
2021/08/19 08:09:49;;;;;;;3.30;2.70;;;21.50;1.00;22.70;100424.00;;;;4971583;28;20467;-84
2021/08/19 08:12:18;;;;;;;4.00;2.63;;;21.50;1.00;22.60;100440.00;;;;4983436;28;20431;-83
2021/08/19 08:14:46;;;;;;;5.07;2.43;;;21.50;1.00;22.60;100434.00;;;;4993847;28;20435;-83
2021/08/19 08:17:17;;;;;;;3.50;3.20;;;21.50;1.00;22.50;100444.00;;;;4992792;28;20482;-82
2021/08/19 08:19:46;;;;;;;4.47;3.00;;;21.50;1.00;22.30;100451.00;;;;4975633;28;20467;-84
2021/08/19 08:22:15;;;;;;;3.90;2.80;;;21.40;1.00;22.30;100458.00;;;;4976668;28;20452;-84
2021/08/19 08:24:43;;;;;;;3.67;2.60;;;21.40;1.00;22.50;100449.00;;;;4992642;28;20753;-82
2021/08/19 08:27:12;;;;;;;4.40;2.60;;;21.60;1.00;22.60;100463.00;;;;5008503;28;20455;-82
2021/08/19 08:29:40;;;;;;;3.43;2.20;;;21.80;1.00;22.70;100463.00;;;;4993647;28;20451;-84
2021/08/19 08:32:10;;;;;;;3.20;2.60;;;21.90;1.00;22.70;100459.00;;;;4985670;28;20526;-83
2021/08/19 08:34:41;;;;;;;4.73;2.37;;;21.90;1.00;22.60;100452.00;;;;4987574;28;20451;-83
2021/08/19 08:37:10;;;;;;;2.73;2.10;;;21.90;1.00;22.90;100456.00;;;;4987494;28;20545;-85
2021/08/19 08:39:39;;;;;;;2.47;2.13;;;21.90;1.00;23.10;100462.00;;;;4976057;28;20483;-83
2021/08/19 08:42:11;;;;;;;2.40;2.00;;;22.10;1.00;23.10;100446.00;;;;4972208;28;20571;-84
2021/08/19 08:44:40;;;;;;;2.67;2.07;;;22.30;1.00;23.30;100456.00;;;;4980395;28;20486;-83
2021/08/19 08:47:11;;;;;;;3.57;2.60;;;22.40;1.00;23.70;100443.00;;;;4983598;28;20542;-85
2021/08/19 08:49:42;;;;;;;2.63;2.20;;;22.50;1.00;23.70;100454.00;;;;4966822;28;20452;-84
2021/08/19 08:52:10;;;;;;;2.53;2.30;;;22.60;1.00;23.80;100432.00;;;;4991017;28;20462;-85
2021/08/19 08:54:39;;;;;;;5.63;3.03;;;22.70;1.00;24.00;100442.00;;;;4974084;28;20455;-85
2021/08/19 08:57:07;;;;;;;2.20;2.00;;;22.80;1.00;24.10;100469.00;;;;4976392;28;21134;-85
2021/08/19 08:59:35;;;;;;;3.87;2.80;;;22.80;1.00;23.90;100472.00;;;;4974120;28;20955;-83
2021/08/19 09:02:05;;;;;;;2.77;2.30;;;22.80;1.00;23.90;100464.00;;;;4972805;28;20558;-83
2021/08/19 09:04:43;;;;;;;2.67;2.03;;;22.70;1.00;24.00;100457.00;;;;4973983;28;20464;-82
2021/08/19 09:07:11;;;;;;;2.70;2.03;;;22.80;1.00;24.10;100372.00;;;;4962990;28;20551;-85
2021/08/19 09:09:40;;;;;;;2.80;2.50;;;23.00;1.00;23.90;100452.00;;;;4980485;28;20527;-84
2021/08/19 09:12:10;;;;;;;2.40;2.17;;;22.90;1.00;24.10;100462.00;;;;4972268;28;20901;-84
2021/08/19 09:14:41;;;;;;;2.60;2.23;;;23.00;1.00;24.10;100459.00;;;;4986955;28;20464;-82
2021/08/19 09:17:09;;;;;;;4.93;2.43;;;23.10;1.00;24.30;100452.00;;;;4974847;28;20538;-84
2021/08/19 09:19:38;;;;;;;5.60;2.63;;;23.20;1.00;24.50;100458.00;;;;4972869;28;21531;-84
2021/08/19 09:22:09;;;;;;;4.90;2.90;;;23.40;1.00;24.40;100441.00;;;;4971590;28;20471;-83
2021/08/19 09:24:37;;;;;;;2.60;2.27;;;23.50;1.00;24.60;100454.00;;;;4966127;28;20945;-82
2021/08/19 09:27:14;;;;;;;3.23;2.43;;;23.60;1.00;24.80;100450.00;;;;4972650;28;20510;-84
2021/08/19 09:29:45;;;;;;;3.00;2.50;;;23.80;1.00;24.90;100452.00;;;;4975962;28;20451;-83
2021/08/19 09:32:17;;;;;;;2.73;2.43;;;23.80;1.00;25.30;100446.00;;;;5002081;28;20474;-82
2021/08/19 09:34:47;;;;;;;3.07;2.40;;;24.10;1.00;25.30;100450.00;;;;4990802;28;20446;-82
2021/08/19 09:37:20;;;;;;;3.20;2.40;;;24.30;1.00;25.10;100456.00;;;;5002623;28;20591;-84
2021/08/19 09:39:56;;;;;;;4.80;2.30;;;24.30;1.00;25.50;100420.00;;;;4977248;28;20556;-85
2021/08/19 09:42:36;;;;;;;2.60;2.40;;;24.40;1.00;25.40;100405.00;;;;4969861;28;20766;-84
2021/08/19 09:45:19;;;;;;;2.97;2.30;;;24.40;1.00;25.50;100455.00;;;;4974380;28;20458;-85
2021/08/19 09:47:48;;;;;;;2.90;2.50;;;24.30;1.00;25.40;100444.00;;;;4973535;28;20483;-84
2021/08/19 09:50:19;;;;;;;2.90;2.60;;;24.30;1.00;25.40;100427.00;;;;4981343;28;20455;-83
2021/08/19 09:52:52;;;;;;;4.30;2.30;;;24.20;1.00;25.50;100443.00;;;;4985436;28;20507;-84
2021/08/19 09:55:24;;;;;;;4.17;2.03;;;24.20;1.00;25.70;100441.00;;;;4982446;28;20477;-84
2021/08/19 09:57:53;;;;;;;2.70;2.37;;;24.30;1.00;25.90;100449.00;;;;5004645;28;20499;-83
2021/08/19 10:00:27;;;;;;;3.03;2.17;;;24.60;1.00;26.10;100441.00;;;;4985748;28;20586;-84
2021/08/19 10:02:57;;;;;;;3.23;2.43;;;24.80;1.00;26.10;100447.00;;;;4976912;28;20467;-83
2021/08/19 10:05:26;;;;;;;2.50;2.23;;;25.00;1.00;25.90;100444.00;;;;4972762;28;20471;-84
2021/08/19 10:07:58;;;;;;;3.63;2.60;;;24.90;1.00;25.70;100430.00;;;;4971866;28;20487;-85
2021/08/19 10:10:28;;;;;;;2.93;2.60;;;24.60;1.00;25.80;100441.00;;;;4969267;28;20460;-84
2021/08/19 10:13:02;;;;;;;3.70;2.27;;;24.70;1.00;26.00;100441.00;;;;4971088;28;20476;-84
2021/08/19 10:15:35;;;;;;;3.43;2.27;;;24.70;1.00;25.80;100439.00;;;;4969925;28;20538;-83
2021/08/19 10:18:07;;;;;;;4.13;2.23;;;24.80;1.00;26.10;100427.00;;;;4970391;28;20478;-83
2021/08/19 10:20:41;;;;;;;3.40;2.70;;;24.80;1.00;26.30;100445.00;;;;4984075;28;20467;-84
2021/08/19 10:23:14;;;;;;;3.17;2.70;;;25.00;1.00;26.10;100432.00;;;;4984949;28;20481;-82
2021/08/19 10:25:44;;;;;;;3.30;2.17;;;25.00;1.00;26.20;100427.00;;;;4981030;28;20458;-81
2021/08/19 10:28:18;;;;;;;2.87;1.87;;;25.00;1.00;26.20;100414.00;;;;4990212;28;20439;-82
2021/08/19 10:30:49;;;;;;;2.63;1.90;;;25.00;1.00;26.20;100376.00;;;;4986850;28;20949;-83
2021/08/19 10:33:44;;;;;;;3.20;2.13;;;25.10;1.00;26.60;100428.00;;;;4973580;28;20543;-84
2021/08/19 10:37:01;;;;;;;3.30;1.50;;;25.30;1.00;26.60;100432.00;;;;4966150;28;20468;-81
2021/08/19 10:39:41;;;;;;;3.27;2.03;;;25.40;1.00;26.60;100417.00;;;;4906201;29;20469;-83
2021/08/19 10:42:30;;;;;;;2.70;1.90;;;25.30;1.00;26.60;100435.00;;;;4958304;28;20458;-83
2021/08/19 10:44:59;;;;;;;4.10;2.03;;;25.30;1.00;26.30;100426.00;;;;4970331;28;20459;-82
2021/08/19 10:47:43;;;;;;;2.30;2.10;;;25.20;1.00;26.10;100413.00;;;;4965088;28;20470;-83
2021/08/19 10:50:40;;;;;;;3.13;1.90;;;24.90;1.00;26.10;100422.00;;;;4974994;28;20459;-83
2021/08/19 10:53:14;;;;;;;3.10;2.50;;;24.70;1.00;26.20;100425.00;;;;4970552;28;20486;-83
2021/08/19 10:55:46;;;;;;;3.13;2.77;;;24.70;1.00;26.20;100381.00;;;;4972712;28;20459;-84
2021/08/19 10:58:27;;;;;;;3.93;2.80;;;24.80;1.00;26.70;100397.00;;;;4963396;28;20475;-84
2021/08/19 11:00:58;;;;;;;3.10;2.50;;;25.20;1.00;27.10;100343.00;;;;4970312;28;20578;-84
2021/08/19 11:03:48;;;;;;;3.13;2.57;;;25.70;1.00;27.20;100419.00;;;;4970048;28;20576;-85
2021/08/19 11:06:19;;;;;;;3.83;2.73;;;26.00;1.00;27.30;100417.00;;;;4958690;28;20496;-85